Time;durP1;ratioP1;P1;durP2;ratioP2;P2;SDS_P1;SDS_P2;PMS_P1;PMS_P2;Temp;Humidity;BMP_temperature;BMP_pressure;BME280_temperature;BME280_humidity;BME280_pressure;Samples;Min_cycle;Max_cycle;Signal;HPM_P1;HPM_P2
2021/07/16 00:01:22;;;;;;;24.23;11.20;;;;;;;25.44;53.44;98791.00;5026937;28;20126;-83
2021/07/16 00:03:48;;;;;;;24.52;11.23;;;;;;;25.54;53.24;98804.25;5030563;28;20057;-83
2021/07/16 00:06:14;;;;;;;23.83;12.20;;;;;;;25.62;53.24;98803.03;5023996;28;20049;-81
2021/07/16 00:08:45;;;;;;;29.23;15.20;;;;;;;25.76;53.15;98793.81;5029795;28;20124;-82
2021/07/16 00:11:15;;;;;;;35.08;20.70;;;;;;;25.79;53.00;98802.59;5029328;28;20045;-81
2021/07/16 00:13:41;;;;;;;48.42;27.08;;;;;;;25.72;52.70;98790.22;5028242;28;20640;-79
2021/07/16 00:16:07;;;;;;;44.67;30.48;;;;;;;25.82;52.56;98801.78;5028888;28;20140;-80
2021/07/16 00:18:37;;;;;;;47.35;30.85;;;;;;;25.81;52.67;98805.78;5027364;28;20132;-80
2021/07/16 00:21:03;;;;;;;42.05;28.25;;;;;;;25.76;52.40;98791.00;5028720;28;20053;-79
2021/07/16 00:23:30;;;;;;;45.83;25.55;;;;;;;25.83;52.68;98795.81;5027435;28;20524;-80
2021/07/16 00:26:06;;;;;;;32.05;19.75;;;;;;;25.91;52.27;98804.97;5026937;28;20095;-80
2021/07/16 00:28:32;;;;;;;34.35;19.25;;;;;;;25.97;52.09;98808.97;5027823;28;20506;-80
2021/07/16 00:31:01;;;;;;;35.50;17.25;;;;;;;25.89;52.15;98801.78;5028733;28;20049;-80
2021/07/16 00:33:27;;;;;;;31.33;16.30;;;;;;;25.88;52.07;98797.41;5028684;28;20049;-80
2021/07/16 00:36:02;;;;;;;27.08;14.77;;;;;;;25.75;52.13;98783.00;5029106;28;20045;-80
2021/07/16 00:38:31;;;;;;;27.77;15.05;;;;;;;25.82;52.08;98804.59;5028386;28;20536;-81
2021/07/16 00:40:57;;;;;;;29.48;14.88;;;;;;;25.77;52.39;98803.03;5028849;28;20046;-80
2021/07/16 00:43:25;;;;;;;26.92;13.60;;;;;;;25.70;52.22;98791.81;5028638;28;20147;-82
2021/07/16 00:45:56;;;;;;;30.13;14.98;;;;;;;25.76;52.43;98793.03;5029644;28;20053;-81
2021/07/16 00:48:22;;;;;;;26.08;13.52;;;;;;;25.74;52.56;98787.81;5029809;28;20045;-83
2021/07/16 00:50:52;;;;;;;30.88;15.18;;;;;;;25.74;52.30;98796.22;5030353;28;20048;-84
2021/07/16 00:53:21;;;;;;;30.10;13.57;;;;;;;25.73;52.05;98789.03;5032650;28;20448;-82
2021/07/16 00:55:51;;;;;;;29.90;14.32;;;;;;;25.81;52.05;98786.19;5020604;28;20049;-82
2021/07/16 00:58:17;;;;;;;27.30;13.30;;;;;;;25.86;51.88;98789.38;5027027;28;20049;-82
2021/07/16 01:00:47;;;;;;;25.95;13.20;;;;;;;25.82;52.31;98773.81;5029011;28;20417;-83
2021/07/16 01:03:14;;;;;;;25.08;14.07;;;;;;;25.77;52.54;98780.63;5027572;28;20053;-81
2021/07/16 01:05:40;;;;;;;;;;;;;;;25.76;52.51;98788.22;5029283;28;20061;-81
2021/07/16 01:08:07;;;;;;;25.20;12.55;;;;;;;25.74;52.39;98789.81;5043969;28;19925;-80
2021/07/16 01:10:33;;;;;;;27.70;12.25;;;;;;;25.71;52.67;98790.63;5024708;28;20501;-81
2021/07/16 01:13:03;;;;;;;22.73;12.07;;;;;;;25.61;52.57;98769.84;5027897;28;20053;-80
2021/07/16 01:15:32;;;;;;;31.35;12.60;;;;;;;25.70;52.82;98784.25;5028375;28;20104;-80
2021/07/16 01:18:00;;;;;;;28.55;14.15;;;;;;;25.70;52.85;98789.03;5028846;28;20050;-82
2021/07/16 01:20:29;;;;;;;39.20;21.20;;;;;;;25.70;52.81;98789.03;5028364;28;20410;-82
2021/07/16 01:22:56;;;;;;;38.58;20.08;;;;;;;25.65;53.09;98776.22;5060668;28;20532;-82
2021/07/16 01:25:25;;;;;;;53.63;26.58;;;;;;;25.67;53.03;98773.03;5029071;28;20160;-82
2021/07/16 01:27:54;;;;;;;47.45;28.25;;;;;;;25.66;52.84;98775.03;5022163;28;20116;-81
2021/07/16 01:30:26;;;;;;;60.13;32.08;;;;;;;25.74;52.90;98778.63;5023021;28;20037;-81
2021/07/16 01:32:53;;;;;;;69.65;36.47;;;;;;;25.81;52.63;98783.41;5026472;28;20465;-82
2021/07/16 01:35:23;;;;;;;67.93;35.35;;;;;;;25.78;52.67;98768.22;5029471;28;20050;-82
2021/07/16 01:37:49;;;;;;;58.03;33.15;;;;;;;25.85;52.82;98773.81;5010016;28;20059;-80
2021/07/16 01:40:20;;;;;;;57.50;31.25;;;;;;;25.85;52.36;98773.81;5010941;28;20406;-82
2021/07/16 01:42:50;;;;;;;57.75;32.28;;;;;;;25.90;52.53;98783.78;5029513;28;20410;-83
2021/07/16 01:45:18;;;;;;;60.90;33.50;;;;;;;25.87;52.49;98785.38;5024597;28;20410;-81
2021/07/16 01:47:48;;;;;;;56.97;31.25;;;;;;;25.87;52.44;98784.59;5028013;28;20045;-83
2021/07/16 01:50:15;;;;;;;55.95;31.60;;;;;;;25.93;52.30;98788.56;5028338;28;20537;-83
2021/07/16 01:52:42;;;;;;;;;;;;;;;26.03;52.12;98790.56;5045909;28;20053;-81
2021/07/16 01:55:09;;;;;;;62.85;32.13;;;;;;;26.08;51.57;98783.75;5064848;28;19925;-81
2021/07/16 01:57:35;;;;;;;62.20;34.63;;;;;;;26.11;51.98;98784.91;5064403;28;20577;-82
2021/07/16 02:00:07;;;;;;;63.90;32.42;;;;;;;26.15;51.69;98782.94;5027671;28;20048;-81
2021/07/16 02:02:45;;;;;;;52.85;28.35;;;;;;;26.18;51.55;98785.72;5024122;28;20045;-81
2021/07/16 02:05:12;;;;;;;57.70;28.00;;;;;;;26.19;51.34;98780.94;5026794;28;20140;-81
2021/07/16 02:07:38;;;;;;;53.97;30.48;;;;;;;26.17;51.67;98778.53;5026265;28;20061;-82
2021/07/16 02:10:05;;;;;;;44.20;27.05;;;;;;;26.13;51.26;98769.31;5025195;28;20081;-80
2021/07/16 02:12:34;;;;;;;;;;;;;;;26.32;51.19;98786.88;5031248;28;20139;-82
2021/07/16 02:15:00;;;;;;;38.75;22.52;;;;;;;26.35;51.00;98786.06;5031924;28;20066;-81
2021/07/16 02:17:28;;;;;;;37.60;19.13;;;;;;;26.40;51.07;98782.03;5031530;28;20087;-83
2021/07/16 02:19:54;;;;;;;38.25;20.15;;;;;;;26.41;50.98;98790.03;5031139;28;20501;-82
2021/07/16 02:22:20;;;;;;;36.85;22.08;;;;;;;26.32;51.18;98772.88;5031866;28;20051;-82
2021/07/16 02:24:47;;;;;;;49.00;25.40;;;;;;;26.28;51.46;98778.47;5029548;28;20132;-82
2021/07/16 02:27:18;;;;;;;37.35;22.15;;;;;;;26.22;51.46;98784.91;5029974;28;20399;-82
2021/07/16 02:29:44;;;;;;;47.58;28.30;;;;;;;26.17;51.89;98781.31;5031787;28;20061;-82
2021/07/16 02:32:13;;;;;;;46.60;29.30;;;;;;;26.13;51.70;98782.50;5031407;28;20056;-82
2021/07/16 02:34:43;;;;;;;50.03;27.92;;;;;;;26.11;51.80;98771.72;5030608;28;20060;-82
2021/07/16 02:37:09;;;;;;;67.82;43.80;;;;;;;26.07;52.13;98779.34;5031575;28;20045;-82
2021/07/16 02:39:36;;;;;;;57.17;34.83;;;;;;;26.08;52.14;98780.94;5009154;28;20053;-82
2021/07/16 02:42:02;;;;;;;54.63;30.27;;;;;;;26.12;51.88;98778.94;5030794;28;20049;-82
2021/07/16 02:44:28;;;;;;;37.70;23.43;;;;;;;26.17;51.82;98784.13;5032239;28;20348;-81
2021/07/16 02:46:54;;;;;;;42.17;24.80;;;;;;;26.19;52.20;98778.91;5030996;28;20136;-82
2021/07/16 02:49:20;;;;;;;49.42;25.50;;;;;;;26.17;51.96;98778.53;5028537;28;20152;-82
2021/07/16 02:51:48;;;;;;;45.00;24.10;;;;;;;26.16;51.98;98784.53;5031720;28;20518;-82
2021/07/16 02:54:14;;;;;;;62.42;33.53;;;;;;;26.18;52.06;98785.72;5030731;28;20056;-82
2021/07/16 02:56:40;;;;;;;42.65;22.63;;;;;;;26.28;51.89;98780.50;5027719;28;20059;-81
2021/07/16 02:59:06;;;;;;;35.50;16.67;;;;;;;26.39;51.68;98781.25;5030430;28;20103;-81
2021/07/16 03:01:33;;;;;;;44.25;21.95;;;;;;;26.48;51.66;98766.78;5029683;28;20054;-81
2021/07/16 03:03:59;;;;;;;34.50;17.27;;;;;;;26.54;51.26;98770.75;5030646;28;20081;-80
2021/07/16 03:06:28;;;;;;;27.43;13.20;;;;;;;26.63;51.46;98772.31;5013542;28;20060;-81
2021/07/16 03:08:56;;;;;;;32.25;14.68;;;;;;;26.57;51.33;98767.13;5046276;28;20140;-81
2021/07/16 03:11:22;;;;;;;33.42;15.52;;;;;;;26.47;51.95;98771.59;5028432;28;20104;-81
2021/07/16 03:13:48;;;;;;;30.83;15.13;;;;;;;26.50;51.74;98780.38;5028411;28;20069;-81
2021/07/16 03:16:17;;;;;;;33.35;14.13;;;;;;;26.52;51.75;98786.38;5030948;28;20303;-80
2021/07/16 03:18:43;;;;;;;33.17;14.43;;;;;;;26.46;52.02;98781.19;5031449;28;20494;-79
2021/07/16 03:21:09;;;;;;;26.10;14.33;;;;;;;26.47;52.08;98770.81;5028857;28;20498;-80
2021/07/16 03:23:38;;;;;;;26.77;12.90;;;;;;;26.50;52.20;98788.78;5030093;28;20076;-81
2021/07/16 03:26:09;;;;;;;27.98;13.18;;;;;;;26.47;51.76;98784.81;5012411;28;20060;-81
2021/07/16 03:28:38;;;;;;;29.70;14.02;;;;;;;26.41;51.86;98792.03;5030099;28;20149;-80
2021/07/16 03:31:04;;;;;;;27.40;13.57;;;;;;;26.51;52.04;98788.38;5025227;28;20041;-81
2021/07/16 03:33:33;;;;;;;31.58;14.13;;;;;;;26.45;52.30;98784.41;5031250;28;20144;-82
2021/07/16 03:35:59;;;;;;;29.42;12.07;;;;;;;26.54;51.87;98790.38;5028669;28;20046;-83
2021/07/16 03:38:26;;;;;;;25.20;11.03;;;;;;;26.67;51.57;98799.09;5028217;28;20041;-81
2021/07/16 03:40:57;;;;;;;24.43;11.23;;;;;;;26.79;51.30;98805.44;5031167;28;20366;-82
2021/07/16 03:43:28;;;;;;;17.77;9.75;;;;;;;26.89;51.19;98804.63;5029746;28;20064;-82
2021/07/16 03:45:54;;;;;;;18.75;9.50;;;;;;;26.95;50.81;98800.16;5028441;28;20817;-82
2021/07/16 03:48:20;;;;;;;24.98;12.35;;;;;;;26.97;50.85;98803.34;5029461;28;20049;-82
2021/07/16 03:50:49;;;;;;;24.77;11.43;;;;;;;26.89;51.35;98801.81;5030163;28;20137;-81
2021/07/16 03:53:18;;;;;;;26.13;12.50;;;;;;;26.89;51.23;98801.81;5030179;28;20306;-81
2021/07/16 03:55:44;;;;;;;24.55;11.70;;;;;;;26.96;51.07;98804.56;5045473;28;20057;-83
2021/07/16 03:58:11;;;;;;;19.58;10.90;;;;;;;26.95;51.15;98797.38;5031093;28;20482;-83
2021/07/16 04:00:41;;;;;;;22.00;11.98;;;;;;;27.06;50.80;98808.50;5029746;28;20144;-83
2021/07/16 04:03:10;;;;;;;26.70;11.95;;;;;;;27.06;50.95;98807.72;5028768;28;20041;-83
2021/07/16 04:05:38;;;;;;;24.27;11.90;;;;;;;27.06;50.84;98816.91;5029530;28;20148;-82
2021/07/16 04:08:05;;;;;;;18.83;10.43;;;;;;;27.13;50.75;98816.88;5028545;28;20045;-81
2021/07/16 04:10:34;;;;;;;21.70;12.18;;;;;;;27.13;50.75;98821.69;5012709;28;20141;-83
2021/07/16 04:13:05;;;;;;;24.70;11.85;;;;;;;27.08;51.17;98811.69;5028200;28;20050;-82
2021/07/16 04:15:31;;;;;;;26.88;13.02;;;;;;;26.99;51.48;98802.94;5030333;28;20080;-82
2021/07/16 04:18:00;;;;;;;26.35;13.23;;;;;;;27.00;51.49;98810.94;5026926;28;20057;-83
2021/07/16 04:20:28;;;;;;;23.67;13.18;;;;;;;27.03;51.05;98815.75;5012017;28;20048;-80
2021/07/16 04:22:55;;;;;;;31.00;12.10;;;;;;;27.04;50.96;98808.13;5026185;28;20051;-82
2021/07/16 04:25:21;;;;;;;;;;;;;;;27.13;51.01;98811.25;4995183;28;20418;-82
2021/07/16 04:27:53;;;;;;;21.98;11.60;;;;;;;27.20;50.89;98818.84;5036897;28;19925;-81
2021/07/16 04:30:22;;;;;;;21.50;9.85;;;;;;;27.22;50.57;98810.00;5020843;28;20068;-81
2021/07/16 04:32:50;;;;;;;24.80;11.55;;;;;;;27.27;50.98;98809.56;5028502;28;20045;-82
2021/07/16 04:35:21;;;;;;;27.15;11.27;;;;;;;27.36;50.33;98811.91;5030490;28;20068;-80
2021/07/16 04:37:48;;;;;;;26.27;13.50;;;;;;;27.31;50.70;98799.88;5026254;28;20088;-82
2021/07/16 04:40:22;;;;;;;20.60;9.98;;;;;;;27.41;50.45;98809.44;5027236;28;20064;-81
2021/07/16 04:42:52;;;;;;;24.90;13.65;;;;;;;27.36;50.71;98814.72;5045130;28;20144;-81
2021/07/16 04:45:20;;;;;;;29.35;13.80;;;;;;;27.39;50.35;98813.88;5027560;28;20045;-81
2021/07/16 04:47:47;;;;;;;21.77;12.15;;;;;;;27.40;50.70;98813.47;5020169;28;20187;-81
2021/07/16 04:50:17;;;;;;;24.63;10.90;;;;;;;27.47;50.39;98812.59;5030042;28;20049;-81
2021/07/16 04:52:46;;;;;;;20.95;10.30;;;;;;;27.52;50.30;98812.19;5028367;28;20046;-80
2021/07/16 04:55:14;;;;;;;24.10;11.52;;;;;;;27.55;50.17;98811.34;5027583;28;20096;-80
2021/07/16 04:57:40;;;;;;;25.55;12.52;;;;;;;27.52;49.98;98814.16;5014772;28;20123;-81
2021/07/16 05:00:08;;;;;;;;;;;;;;;27.62;50.14;98824.53;5028479;28;20056;-80
2021/07/16 05:02:34;;;;;;;27.05;12.30;;;;;;;27.58;50.08;98815.34;5028143;28;19928;-83
2021/07/16 05:05:04;;;;;;;20.53;9.57;;;;;;;27.69;49.78;98827.25;5019728;28;20449;-81
2021/07/16 05:07:30;;;;;;;20.90;10.43;;;;;;;27.69;49.58;98824.44;5025777;28;20828;-82
2021/07/16 05:10:02;;;;;;;22.95;10.23;;;;;;;27.77;49.71;98827.19;5062130;28;20498;-83
2021/07/16 05:12:30;;;;;;;23.33;11.32;;;;;;;27.70;49.75;98816.84;5009570;28;20548;-83
2021/07/16 05:14:59;;;;;;;20.30;11.30;;;;;;;27.81;49.86;98837.19;5027957;28;20041;-81
2021/07/16 05:17:25;;;;;;;29.05;14.30;;;;;;;27.68;49.97;98813.66;5043155;28;20056;-80
2021/07/16 05:19:51;;;;;;;26.38;12.57;;;;;;;27.84;49.62;98836.34;5027299;28;20045;-82
2021/07/16 05:22:20;;;;;;;20.87;10.90;;;;;;;27.89;49.39;98835.09;5029713;28;20092;-83
2021/07/16 05:24:46;;;;;;;40.17;13.77;;;;;;;27.88;49.53;98834.28;5027781;28;20041;-82
2021/07/16 05:27:17;;;;;;;31.95;13.32;;;;;;;27.91;49.32;98835.47;5012565;28;20054;-82
2021/07/16 05:29:43;;;;;;;26.05;11.18;;;;;;;27.96;49.58;98843.44;5014105;28;20144;-82
2021/07/16 05:32:09;;;;;;;25.40;11.93;;;;;;;27.93;49.14;98829.44;5063148;28;20047;-79
2021/07/16 05:34:38;;;;;;;27.00;13.82;;;;;;;27.96;49.19;98843.44;5033585;28;20448;-80
2021/07/16 05:37:05;;;;;;;28.83;12.88;;;;;;;27.98;49.41;98840.22;5045617;28;20888;-79
2021/07/16 05:39:31;;;;;;;31.17;13.52;;;;;;;28.00;49.50;98840.59;5029478;28;20049;-79
2021/07/16 05:41:57;;;;;;;20.50;10.50;;;;;;;28.04;49.10;98846.97;5030014;28;20414;-80
2021/07/16 05:44:24;;;;;;;34.00;13.87;;;;;;;28.05;49.46;98839.34;5030008;28;20545;-78
2021/07/16 05:46:50;;;;;;;28.40;14.25;;;;;;;28.00;48.78;98832.97;5029412;28;20443;-79
2021/07/16 05:49:16;;;;;;;30.53;13.57;;;;;;;28.05;49.14;98844.97;5029338;28;20037;-80
2021/07/16 05:51:45;;;;;;;25.87;13.70;;;;;;;28.07;49.03;98834.91;5032218;28;20053;-80
2021/07/16 05:54:15;;;;;;;27.00;13.00;;;;;;;28.10;48.88;98836.91;5032276;28;20320;-80
2021/07/16 05:56:43;;;;;;;26.25;13.88;;;;;;;28.10;49.15;98838.88;5028533;28;20094;-83
2021/07/16 05:59:09;;;;;;;24.63;13.45;;;;;;;28.10;49.19;98834.09;5029342;28;20505;-84
2021/07/16 06:01:37;;;;;;;21.45;12.55;;;;;;;28.17;48.94;98830.41;5010958;28;20042;-82
2021/07/16 06:04:09;;;;;;;29.60;13.02;;;;;;;28.20;49.07;98828.78;5028115;28;20049;-82
2021/07/16 06:06:39;;;;;;;23.60;11.73;;;;;;;28.20;48.73;98840.81;5029605;28;20544;-82
2021/07/16 06:09:05;;;;;;;18.48;11.07;;;;;;;28.27;48.36;98840.72;5032338;28;20075;-82
2021/07/16 06:11:32;;;;;;;32.88;14.18;;;;;;;28.26;49.01;98832.75;5031613;28;20573;-83
2021/07/16 06:13:58;;;;;;;30.17;14.75;;;;;;;28.25;49.05;98836.72;5024693;28;20056;-82
2021/07/16 06:16:25;;;;;;;28.02;13.60;;;;;;;28.22;48.92;98829.97;5029388;28;20045;-82
2021/07/16 06:18:55;;;;;;;28.83;13.35;;;;;;;28.24;48.84;98832.34;5030519;28;20052;-82
2021/07/16 06:21:22;;;;;;;21.60;11.43;;;;;;;28.26;48.76;98836.31;5030212;28;20041;-82
2021/07/16 06:23:48;;;;;;;23.65;12.57;;;;;;;28.30;48.96;98836.28;5029945;28;20068;-83
2021/07/16 06:26:14;;;;;;;24.02;12.27;;;;;;;28.26;48.90;98835.53;5011774;28;20045;-82
2021/07/16 06:28:40;;;;;;;26.80;12.75;;;;;;;28.26;48.66;98835.53;5013364;28;20054;-82
2021/07/16 06:31:07;;;;;;;27.00;12.93;;;;;;;28.29;48.39;98840.31;5029759;28;20096;-80
2021/07/16 06:33:36;;;;;;;21.80;10.13;;;;;;;28.26;47.96;98824.31;5014260;28;20056;-80
2021/07/16 06:36:04;;;;;;;22.17;12.20;;;;;;;28.38;48.08;98842.63;5028334;28;20045;-80
2021/07/16 06:38:30;;;;;;;23.60;13.35;;;;;;;28.43;47.96;98839.34;5013604;28;20045;-80
2021/07/16 06:40:56;;;;;;;27.33;12.57;;;;;;;28.46;47.43;98832.88;5028448;28;20052;-79
2021/07/16 06:43:22;;;;;;;24.85;12.80;;;;;;;28.43;47.63;98828.09;5029326;28;20144;-79
2021/07/16 06:45:48;;;;;;;28.23;12.40;;;;;;;28.44;47.38;98829.69;5027922;28;20132;-79
2021/07/16 06:48:14;;;;;;;24.80;11.93;;;;;;;28.42;47.85;98823.69;5030401;28;20049;-79
2021/07/16 06:50:44;;;;;;;19.85;12.23;;;;;;;28.46;47.51;98841.31;5029870;28;20041;-79
2021/07/16 06:53:14;;;;;;;21.83;12.80;;;;;;;28.45;47.68;98823.66;5045688;28;20056;-80
2021/07/16 06:55:40;;;;;;;25.13;13.18;;;;;;;28.45;47.68;98832.09;5030190;28;20084;-82
2021/07/16 06:58:06;;;;;;;31.27;13.23;;;;;;;28.47;47.44;98830.88;5026645;28;20132;-82
2021/07/16 07:00:34;;;;;;;23.67;12.32;;;;;;;28.48;47.24;98833.25;5028018;28;20072;-80
2021/07/16 07:03:01;;;;;;;29.02;12.98;;;;;;;28.50;47.27;98835.66;5028827;28;20049;-79
2021/07/16 07:05:31;;;;;;;26.00;13.60;;;;;;;28.50;46.93;98830.84;5063039;28;20148;-80
2021/07/16 07:07:57;;;;;;;21.17;12.55;;;;;;;28.54;47.12;98827.97;5024714;28;20038;-80
2021/07/16 07:10:24;;;;;;;22.00;12.63;;;;;;;28.58;46.93;98829.50;5027800;28;20046;-82
2021/07/16 07:12:50;;;;;;;21.23;11.43;;;;;;;28.63;46.60;98822.63;5030009;28;20045;-81
2021/07/16 07:15:19;;;;;;;21.00;12.90;;;;;;;28.67;46.56;98831.03;5031247;28;20447;-81
2021/07/16 07:17:46;;;;;;;18.90;11.82;;;;;;;28.69;46.60;98825.78;5029943;28;20254;-80
2021/07/16 07:20:13;;;;;;;20.40;12.93;;;;;;;28.68;46.64;98827.78;4987748;28;20312;-79
2021/07/16 07:22:38;;;;;;;;;;;;;;;28.69;46.35;98831.38;5027258;28;20108;-81
2021/07/16 07:25:05;;;;;;;21.58;13.20;;;;;;;28.64;46.31;98821.41;5028710;28;19933;-82
2021/07/16 07:27:36;;;;;;;24.00;12.68;;;;;;;28.66;46.13;98823.81;5029479;28;20048;-78
2021/07/16 07:30:04;;;;;;;23.48;13.70;;;;;;;28.54;46.33;98811.09;4992300;28;20383;-80
2021/07/16 07:32:30;;;;;;;31.73;13.13;;;;;;;28.69;46.03;98834.97;5029250;28;20052;-80
2021/07/16 07:34:56;;;;;;;26.87;12.20;;;;;;;28.78;46.29;98825.25;5029713;28;20041;-82
2021/07/16 07:37:22;;;;;;;18.63;11.38;;;;;;;28.85;45.92;98828.78;5028719;28;20456;-81
2021/07/16 07:39:48;;;;;;;22.67;12.35;;;;;;;28.92;45.65;98827.88;5030183;28;20065;-80
2021/07/16 07:42:17;;;;;;;17.90;11.37;;;;;;;28.97;45.39;98821.78;5026477;28;20055;-81
2021/07/16 07:44:46;;;;;;;19.95;12.18;;;;;;;29.00;45.25;98820.13;5005389;28;20311;-76
2021/07/16 07:47:13;;;;;;;18.10;11.90;;;;;;;29.01;45.49;98825.31;5043946;28;20053;-76
2021/07/16 07:49:40;;;;;;;17.77;11.32;;;;;;;29.04;45.23;98820.88;5020548;28;20041;-76
2021/07/16 07:52:08;;;;;;;22.40;12.30;;;;;;;29.09;44.61;98828.81;5028696;28;20183;-75
2021/07/16 07:54:34;;;;;;;21.92;12.27;;;;;;;29.06;44.71;98838.13;5026375;28;20462;-75
2021/07/16 07:57:00;;;;;;;16.98;12.63;;;;;;;29.01;44.97;98827.34;5026153;28;20046;-75
2021/07/16 07:59:26;;;;;;;23.40;12.85;;;;;;;29.05;44.58;98830.91;5022772;28;20064;-77
2021/07/16 08:01:56;;;;;;;25.33;11.83;;;;;;;29.09;44.52;98826.00;5015398;28;20184;-75
2021/07/16 08:04:22;;;;;;;25.92;13.40;;;;;;;29.15;44.37;98821.50;5025535;28;20324;-76
2021/07/16 08:06:48;;;;;;;17.50;12.33;;;;;;;29.19;44.24;98823.47;5056482;28;20144;-76
2021/07/16 08:09:15;;;;;;;21.43;12.57;;;;;;;29.03;44.22;98813.66;5027705;28;20091;-76
2021/07/16 08:11:41;;;;;;;21.08;12.73;;;;;;;29.14;44.05;98810.66;5023076;28;20327;-76
2021/07/16 08:14:08;;;;;;;19.55;13.15;;;;;;;29.26;43.96;98826.16;5026769;28;20045;-77
2021/07/16 08:16:35;;;;;;;20.60;12.40;;;;;;;29.23;43.66;98815.75;5026130;28;20409;-76
2021/07/16 08:19:03;;;;;;;19.35;12.30;;;;;;;29.34;43.78;98822.00;5022224;28;20045;-76
2021/07/16 08:21:31;;;;;;;19.40;12.85;;;;;;;29.38;43.50;98821.97;5026554;28;20059;-76
2021/07/16 08:23:57;;;;;;;18.30;11.82;;;;;;;29.42;43.34;98825.53;5026387;28;20045;-76
2021/07/16 08:26:23;;;;;;;15.03;10.67;;;;;;;29.47;43.15;98825.03;5024687;28;20103;-76
2021/07/16 08:28:49;;;;;;;17.83;12.67;;;;;;;29.43;43.23;98818.69;5018587;28;20055;-75
2021/07/16 08:31:16;;;;;;;18.33;13.20;;;;;;;29.49;43.65;98822.59;5056624;28;20056;-76
2021/07/16 08:33:42;;;;;;;18.52;13.35;;;;;;;29.53;43.20;98812.09;5027281;28;20053;-76
2021/07/16 08:36:10;;;;;;;23.90;14.13;;;;;;;29.57;42.81;98818.44;5007516;28;20048;-76
2021/07/16 08:38:36;;;;;;;20.88;13.77;;;;;;;29.61;42.96;98814.75;5009368;28;20226;-77
2021/07/16 08:41:02;;;;;;;18.73;12.10;;;;;;;29.71;42.72;98811.75;4993390;28;20038;-78
2021/07/16 08:43:32;;;;;;;18.33;12.07;;;;;;;29.90;42.59;98815.03;5021301;28;20054;-75
2021/07/16 08:45:59;;;;;;;18.48;12.35;;;;;;;29.97;42.05;98808.47;5024470;28;20049;-73
2021/07/16 08:48:27;;;;;;;21.48;13.43;;;;;;;29.95;42.41;98823.00;5025687;28;20300;-76
2021/07/16 08:50:53;;;;;;;20.52;13.65;;;;;;;29.92;42.09;98820.22;5024030;28;20414;-76
2021/07/16 08:53:22;;;;;;;20.13;14.07;;;;;;;29.96;42.34;98810.50;5027066;28;20041;-72
2021/07/16 08:55:48;;;;;;;23.15;14.10;;;;;;;29.97;42.35;98816.91;5023417;28;20054;-76
2021/07/16 08:58:15;;;;;;;21.48;14.82;;;;;;;29.82;42.48;98820.03;5025053;28;20445;-77
2021/07/16 09:00:41;;;;;;;24.45;14.90;;;;;;;29.72;42.48;98824.59;5008932;28;20049;-78
2021/07/16 09:03:10;;;;;;;20.73;14.50;;;;;;;29.71;42.90;98806.13;5029107;28;20045;-77
2021/07/16 09:05:42;;;;;;;21.98;14.05;;;;;;;29.86;42.11;98819.94;4999316;28;20049;-78
2021/07/16 09:08:13;;;;;;;30.63;14.90;;;;;;;29.97;42.06;98811.28;5028946;28;20482;-78
2021/07/16 09:10:46;;;;;;;31.33;14.23;;;;;;;29.95;42.10;98806.09;5029541;28;20056;-77
2021/07/16 09:13:13;;;;;;;32.50;15.30;;;;;;;30.04;41.95;98814.00;5029086;28;20050;-77
2021/07/16 09:15:46;;;;;;;36.50;15.20;;;;;;;30.13;41.79;98816.25;5026974;28;20207;-76
2021/07/16 09:18:21;;;;;;;25.48;15.57;;;;;;;29.97;41.99;98794.38;5031939;28;20041;-76
2021/07/16 09:20:49;;;;;;;21.95;14.60;;;;;;;29.98;41.80;98791.13;5062668;28;20046;-76
2021/07/16 09:23:17;;;;;;;23.17;14.60;;;;;;;30.06;41.87;98807.94;5029220;28;20045;-75
2021/07/16 09:26:01;;;;;;;23.80;14.43;;;;;;;30.12;41.40;98800.56;5028663;28;20397;-75
2021/07/16 09:28:30;;;;;;;21.63;13.98;;;;;;;30.27;41.30;98813.13;5027880;28;20049;-76
2021/07/16 09:31:12;;;;;;;20.83;13.07;;;;;;;30.45;40.16;98811.19;5031208;28;20049;-81
2021/07/16 09:33:43;;;;;;;19.08;12.65;;;;;;;30.68;39.60;98802.63;5023196;28;20055;-77
2021/07/16 09:36:09;;;;;;;24.67;14.13;;;;;;;30.68;40.36;98799.03;5012205;28;20045;-76
2021/07/16 09:38:36;;;;;;;21.92;14.25;;;;;;;30.41;40.38;98799.97;5046730;28;20041;-76
2021/07/16 09:41:25;;;;;;;24.55;15.82;;;;;;;29.96;40.55;98771.06;5010703;28;20129;-79
2021/07/16 09:43:57;;;;;;;24.70;17.50;;;;;;;30.03;41.09;98803.97;5028100;28;20508;-78
2021/07/16 09:46:23;;;;;;;24.00;16.20;;;;;;;29.96;41.51;98802.03;5030672;28;20115;-79
2021/07/16 09:48:49;;;;;;;24.57;16.23;;;;;;;29.93;41.88;98810.56;5031074;28;20492;-81
2021/07/16 09:51:20;;;;;;;21.88;16.15;;;;;;;29.98;41.27;98798.81;5012078;28;20296;-80
2021/07/16 09:53:49;;;;;;;21.42;15.85;;;;;;;30.06;40.95;98791.03;5028702;28;20195;-80
2021/07/16 09:56:22;;;;;;;23.67;15.00;;;;;;;30.05;41.31;98787.41;5029248;28;20095;-80
2021/07/16 09:58:49;;;;;;;24.92;15.35;;;;;;;30.17;40.81;98793.63;5030964;28;20068;-79
2021/07/16 10:01:17;;;;;;;24.65;15.43;;;;;;;30.21;40.56;98791.53;5029622;28;20049;-80
2021/07/16 10:03:43;;;;;;;24.42;16.05;;;;;;;30.28;40.83;98791.38;5012486;28;20050;-78
2021/07/16 10:06:15;;;;;;;22.10;16.02;;;;;;;30.26;40.58;98786.19;5027358;28;20060;-78
2021/07/16 10:08:42;;;;;;;23.88;15.15;;;;;;;30.45;40.44;98785.81;5028862;28;20148;-77
2021/07/16 10:11:09;;;;;;;24.38;14.90;;;;;;;30.63;40.29;98771.34;5029994;28;20057;-80
2021/07/16 10:13:37;;;;;;;22.80;15.07;;;;;;;30.61;40.07;98768.94;5028363;28;20049;-77
2021/07/16 10:16:04;;;;;;;26.50;15.88;;;;;;;30.56;39.92;98775.06;5029235;28;20140;-80
2021/07/16 10:18:30;;;;;;;21.65;14.68;;;;;;;30.67;39.50;98774.84;5029882;28;20048;-81
2021/07/16 10:20:57;;;;;;;21.30;13.05;;;;;;;30.94;39.24;98769.00;5027912;28;20052;-82
2021/07/16 10:23:25;;;;;;;22.25;13.10;;;;;;;31.18;38.44;98774.47;5029998;28;20096;-81
2021/07/16 10:25:52;;;;;;;22.98;14.07;;;;;;;31.35;38.47;98772.47;5012837;28;20050;-80
2021/07/16 10:28:42;;;;;;;22.58;13.40;;;;;;;31.26;38.29;98756.16;5030416;28;20469;-81
2021/07/16 10:31:34;;;;;;;23.48;14.13;;;;;;;30.98;38.77;98774.53;4988558;28;20427;-80
2021/07/16 10:34:02;;;;;;;27.67;14.50;;;;;;;30.66;38.19;98745.06;5011788;28;20048;-80
2021/07/16 10:36:41;;;;;;;25.02;14.80;;;;;;;30.99;38.16;98760.00;5028852;28;20054;-81
2021/07/16 10:39:09;;;;;;;21.65;15.52;;;;;;;31.00;37.39;98760.81;5012022;28;20041;-79
2021/07/16 10:41:38;;;;;;;27.83;15.30;;;;;;;31.11;37.07;98758.50;5059898;28;20160;-81
2021/07/16 10:44:05;;;;;;;22.83;13.93;;;;;;;31.16;36.89;98731.78;5030009;28;20045;-79
2021/07/16 10:46:34;;;;;;;18.33;12.57;;;;;;;31.21;37.29;98722.03;5030908;28;20056;-72
2021/07/16 10:49:01;;;;;;;24.73;13.30;;;;;;;31.48;36.91;98746.34;5029222;28;20049;-75
2021/07/16 10:51:29;;;;;;;22.45;13.40;;;;;;;31.33;36.81;98731.78;5029231;28;20684;-76
2021/07/16 10:53:56;;;;;;;22.77;14.52;;;;;;;31.14;36.73;98737.09;5031950;28;20052;-74
2021/07/16 10:56:40;;;;;;;20.58;13.85;;;;;;;31.05;36.62;98746.16;5021535;28;20430;-77
2021/07/16 10:59:08;;;;;;;17.40;11.93;;;;;;;31.13;36.63;98729.84;5029804;28;20053;-72
2021/07/16 11:01:41;;;;;;;18.42;13.18;;;;;;;31.30;36.58;98736.31;5030219;28;20049;-77
2021/07/16 11:04:33;;;;;;;28.83;14.27;;;;;;;31.47;36.32;98716.53;5027983;28;20045;-75
2021/07/16 11:06:59;;;;;;;27.48;14.20;;;;;;;31.51;35.78;98731.31;5025854;28;20056;-74
2021/07/16 11:09:34;;;;;;;29.45;14.68;;;;;;;31.35;36.52;98720.84;5030522;28;20053;-74
2021/07/16 11:12:27;;;;;;;23.95;15.60;;;;;;;31.19;37.22;98711.13;5024332;28;20866;-75
2021/07/16 11:14:55;;;;;;;25.33;15.52;;;;;;;30.97;37.01;98713.72;5025210;28;20053;-74
2021/07/16 11:17:36;;;;;;;25.38;14.95;;;;;;;31.08;36.61;98719.88;5004061;28;20452;-74
2021/07/16 11:20:12;;;;;;;23.27;14.57;;;;;;;31.04;36.34;98721.19;5025865;28;20426;-74
2021/07/16 11:22:56;;;;;;;25.00;15.38;;;;;;;31.23;36.19;98714.72;5027326;28;20057;-75
2021/07/16 11:25:23;;;;;;;22.90;15.35;;;;;;;31.35;36.32;98718.03;5029452;28;20572;-77